createdAt,value
2022-08-12T00:00:34.980Z,95.38
2022-08-12T00:03:20.910Z,95.83
2022-08-12T00:06:08.425Z,96.21
2022-08-12T00:08:54.722Z,95.50
2022-08-12T00:11:39.898Z,96.02
2022-08-12T00:14:24.674Z,96.46
2022-08-12T00:17:09.825Z,96.76
2022-08-12T00:19:54.877Z,97.07
2022-08-12T00:22:41.949Z,97.13
2022-08-12T00:26:06.635Z,97.34
2022-08-12T00:28:33.109Z,96.99
2022-08-12T00:31:18.235Z,97.56
2022-08-12T00:34:03.128Z,97.85
2022-08-12T00:36:50.651Z,97.41
2022-08-12T00:39:37.138Z,98.70
2022-08-12T00:42:13.197Z,99.26
2022-08-12T00:44:42.451Z,99.50
2022-08-12T00:47:24.193Z,99.52
2022-08-12T00:49:55.402Z,99.86
2022-08-12T00:52:23.587Z,100.00
2022-08-12T00:54:53.934Z,100.00
2022-08-12T00:57:22.998Z,100.00
2022-08-12T00:59:51.753Z,100.00
2022-08-12T01:02:24.462Z,100.00
2022-08-12T01:05:10.764Z,100.00
2022-08-12T01:07:56.571Z,100.00
2022-08-12T01:10:43.477Z,100.00
2022-08-12T01:13:19.729Z,100.00
2022-08-12T01:15:49.325Z,100.00
2022-08-12T01:18:18.159Z,100.00
2022-08-12T01:20:49.316Z,100.00
2022-08-12T01:23:36.595Z,100.00
2022-08-12T01:26:06.817Z,100.00
2022-08-12T01:28:35.801Z,100.00
2022-08-12T01:31:05.634Z,100.00
2022-08-12T01:33:35.965Z,100.00
2022-08-12T01:36:08.691Z,100.00
2022-08-12T01:38:37.351Z,100.00
2022-08-12T01:41:06.437Z,100.00
2022-08-12T01:43:34.161Z,100.00
2022-08-12T01:46:07.376Z,100.00
2022-08-12T01:48:50.297Z,100.00
2022-08-12T01:52:15.689Z,100.00
2022-08-12T01:54:19.951Z,100.00
2022-08-12T01:56:52.197Z,100.00
2022-08-12T01:59:50.146Z,100.00
2022-08-12T02:02:19.080Z,100.00
2022-08-12T02:05:18.904Z,100.00
2022-08-12T02:08:08.374Z,100.00
2022-08-12T02:11:03.190Z,100.00
2022-08-12T02:13:49.770Z,100.00
2022-08-12T02:16:24.509Z,100.00
2022-08-12T02:18:58.597Z,100.00
2022-08-12T02:21:32.663Z,100.00
2022-08-12T02:24:00.916Z,100.00
2022-08-12T02:26:30.794Z,100.00
2022-08-12T02:29:01.188Z,100.00
2022-08-12T02:31:30.361Z,100.00
2022-08-12T02:33:58.930Z,100.00
2022-08-12T02:36:27.773Z,100.00
2022-08-12T02:38:59.157Z,100.00
2022-08-12T02:41:27.338Z,100.00
2022-08-12T02:43:56.608Z,100.00
2022-08-12T02:46:29.089Z,100.00
2022-08-12T02:49:00.755Z,100.00
2022-08-12T02:51:30.806Z,100.00
2022-08-12T02:54:04.798Z,100.00
2022-08-12T02:56:33.955Z,100.00
2022-08-12T02:59:02.314Z,100.00
2022-08-12T03:01:34.155Z,100.00
2022-08-12T03:04:02.969Z,100.00
2022-08-12T03:06:38.590Z,100.00
2022-08-12T03:09:06.399Z,100.00
2022-08-12T03:11:42.801Z,100.00
2022-08-12T03:14:18.025Z,100.00
2022-08-12T03:16:50.188Z,100.00
2022-08-12T03:19:20.475Z,100.00
2022-08-12T03:21:55.563Z,100.00
2022-08-12T03:24:39.109Z,100.00
2022-08-12T03:27:09.789Z,100.00
2022-08-12T03:29:49.912Z,100.00
2022-08-12T03:32:35.589Z,100.00
2022-08-12T03:35:07.246Z,100.00
2022-08-12T03:37:36.368Z,100.00
2022-08-12T03:40:04.423Z,100.00
2022-08-12T03:42:35.315Z,100.00
2022-08-12T03:45:34.506Z,100.00
2022-08-12T03:48:32.097Z,100.00
2022-08-12T03:51:17.770Z,100.00
2022-08-12T03:54:03.361Z,100.00
2022-08-12T03:56:48.669Z,100.00
2022-08-12T03:59:33.658Z,100.00
2022-08-12T04:02:01.197Z,100.00
2022-08-12T04:04:34.678Z,100.00
2022-08-12T04:07:03.180Z,100.00
2022-08-12T04:09:30.977Z,100.00
2022-08-12T04:12:16.176Z,100.00
2022-08-12T04:14:43.852Z,100.00
2022-08-12T04:17:12.554Z,100.00
2022-08-12T04:19:41.689Z,100.00
2022-08-12T04:22:09.867Z,100.00
2022-08-12T04:24:37.995Z,100.00
2022-08-12T04:27:09.374Z,100.00
2022-08-12T04:30:21.482Z,100.00
2022-08-12T04:32:25.841Z,100.00
2022-08-12T04:34:55.190Z,100.00
2022-08-12T04:37:23.204Z,100.00
2022-08-12T04:39:51.015Z,100.00
2022-08-12T04:42:20.112Z,100.00
2022-08-12T04:44:48.025Z,100.00
2022-08-12T04:47:16.558Z,100.00
2022-08-12T04:49:44.967Z,100.00
2022-08-12T04:52:13.931Z,100.00
2022-08-12T04:54:43.802Z,100.00
2022-08-12T04:57:11.382Z,100.00
2022-08-12T04:59:46.504Z,100.00
2022-08-12T05:02:17.044Z,100.00
2022-08-12T05:04:49.977Z,100.00
2022-08-12T05:07:18.862Z,100.00
2022-08-12T05:10:00.362Z,100.00
2022-08-12T05:12:31.116Z,100.00
2022-08-12T05:14:59.183Z,100.00
2022-08-12T05:17:27.203Z,100.00
2022-08-12T05:19:57.391Z,100.00
2022-08-12T05:22:26.852Z,100.00
2022-08-12T05:24:54.586Z,100.00
2022-08-12T05:27:22.849Z,100.00
2022-08-12T05:30:07.972Z,100.00
2022-08-12T05:32:37.337Z,100.00
2022-08-12T05:35:06.568Z,100.00
2022-08-12T05:37:36.032Z,100.00
2022-08-12T05:40:10.632Z,100.00
2022-08-12T05:42:38.961Z,100.00
2022-08-12T05:45:06.917Z,100.00
2022-08-12T05:47:52.961Z,100.00
2022-08-12T05:50:21.692Z,100.00
2022-08-12T05:52:50.575Z,100.00
2022-08-12T05:55:24.163Z,100.00
2022-08-12T05:57:55.272Z,100.00
2022-08-12T06:00:25.420Z,100.00
2022-08-12T06:03:01.110Z,100.00
2022-08-12T06:05:29.018Z,100.00
2022-08-12T06:08:01.505Z,100.00
2022-08-12T06:10:32.333Z,100.00
2022-08-12T06:13:01.010Z,100.00
2022-08-12T06:15:28.599Z,100.00
2022-08-12T06:17:56.300Z,100.00
2022-08-12T06:20:29.948Z,100.00
2022-08-12T06:23:02.662Z,100.00
2022-08-12T06:25:30.289Z,100.00
2022-08-12T06:28:06.260Z,100.00
2022-08-12T06:30:39.097Z,100.00
2022-08-12T06:33:20.914Z,100.00
2022-08-12T06:35:51.795Z,100.00
2022-08-12T06:38:21.983Z,100.00
2022-08-12T06:41:08.395Z,100.00
2022-08-12T06:44:05.753Z,100.00
2022-08-12T06:46:24.013Z,100.00
2022-08-12T06:48:55.621Z,100.00
2022-08-12T06:51:23.483Z,100.00
2022-08-12T06:53:52.413Z,98.03
2022-08-12T06:56:20.543Z,93.33
2022-08-12T06:58:48.307Z,88.24
2022-08-12T07:01:17.509Z,85.39
2022-08-12T07:03:45.562Z,82.09
2022-08-12T07:06:13.648Z,80.93
2022-08-12T07:08:43.894Z,72.71
2022-08-12T07:11:13.785Z,70.36
2022-08-12T07:14:02.490Z,67.46
2022-08-12T07:16:52.140Z,65.08
2022-08-12T07:19:20.195Z,60.89
2022-08-12T07:22:01.698Z,58.03
2022-08-12T07:24:30.420Z,54.82
2022-08-12T07:26:59.410Z,51.21
2022-08-12T07:29:57.830Z,49.83
2022-08-12T07:32:15.988Z,45.86
2022-08-12T07:34:43.591Z,49.28
2022-08-12T07:37:11.169Z,47.45
2022-08-12T07:39:50.709Z,46.02
2022-08-12T07:42:27.852Z,49.66
2022-08-12T07:44:55.837Z,48.68
2022-08-12T07:47:23.740Z,48.74
2022-08-12T07:50:03.177Z,48.51
2022-08-12T07:52:34.076Z,47.02
2022-08-12T07:55:01.637Z,46.42
2022-08-12T07:57:32.460Z,43.85
2022-08-12T08:00:04.061Z,44.86
2022-08-12T08:02:36.200Z,44.31
2022-08-12T08:05:04.387Z,44.27
2022-08-12T08:07:31.922Z,43.11
2022-08-12T08:10:00.195Z,42.46
2022-08-12T08:12:46.228Z,42.20
2022-08-12T08:15:15.300Z,42.10
2022-08-12T08:17:57.889Z,40.61
2022-08-12T08:20:28.474Z,40.12
2022-08-12T08:22:57.523Z,39.57
2022-08-12T08:25:36.090Z,39.49
2022-08-12T08:28:05.877Z,38.55
2022-08-12T08:30:37.490Z,38.30
2022-08-12T08:33:15.544Z,37.03
2022-08-12T08:35:54.423Z,37.87
2022-08-12T08:38:32.717Z,38.20
2022-08-12T08:42:18.740Z,37.16
2022-08-12T08:44:08.242Z,36.34
2022-08-12T08:46:38.070Z,35.80
2022-08-12T08:49:06.025Z,35.31
2022-08-12T08:51:33.830Z,36.26
2022-08-12T08:54:01.583Z,36.11
2022-08-12T08:56:30.200Z,34.96
2022-08-12T08:58:57.948Z,35.07
2022-08-12T09:01:25.617Z,34.55
2022-08-12T09:05:12.658Z,34.58
2022-08-12T09:06:53.640Z,32.91
2022-08-12T09:09:22.322Z,33.55
2022-08-12T09:12:12.147Z,32.41
2022-08-12T09:14:46.926Z,33.17
2022-08-12T09:17:22.401Z,33.07
2022-08-12T09:19:58.010Z,32.78
2022-08-12T09:22:28.704Z,33.86
2022-08-12T09:24:59.749Z,33.00
2022-08-12T09:27:57.921Z,33.13
2022-08-12T09:30:16.934Z,31.82
2022-08-12T09:33:05.288Z,32.46
2022-08-12T09:35:43.094Z,30.08
2022-08-12T09:38:28.109Z,30.15
2022-08-12T09:42:09.645Z,31.02
2022-08-12T09:44:05.206Z,31.64
2022-08-12T09:46:34.723Z,31.25
2022-08-12T09:49:03.968Z,31.42
2022-08-12T09:51:44.571Z,30.64
2022-08-12T09:54:32.907Z,29.60
2022-08-12T09:58:07.061Z,32.09
2022-08-12T10:00:17.032Z,30.51
2022-08-12T10:02:44.670Z,31.22
2022-08-12T10:05:17.890Z,30.87
2022-08-12T10:07:49.335Z,29.78
2022-08-12T10:10:22.383Z,29.61
2022-08-12T10:13:10.764Z,30.13
2022-08-12T10:16:03.019Z,30.96
2022-08-12T10:18:32.851Z,30.90
2022-08-12T10:21:06.110Z,29.73
2022-08-12T10:23:40.213Z,30.80
2022-08-12T10:26:37.378Z,29.95
2022-08-12T10:30:03.670Z,30.65
2022-08-12T10:32:20.708Z,30.85
2022-08-12T10:34:53.360Z,31.00
2022-08-12T10:38:36.412Z,31.09
2022-08-12T10:40:20.029Z,30.67
2022-08-12T10:43:07.866Z,30.02
2022-08-12T10:45:35.733Z,28.54
2022-08-12T10:48:21.050Z,28.39
2022-08-12T10:51:01.762Z,29.07
2022-08-12T10:53:45.129Z,29.01
2022-08-12T10:56:16.330Z,30.12
2022-08-12T10:58:46.813Z,30.29
2022-08-12T11:01:48.922Z,29.44
2022-08-12T11:04:35.429Z,28.78
2022-08-12T11:07:07.911Z,28.46
2022-08-12T11:10:00.384Z,29.36
2022-08-12T11:12:55.986Z,29.43
2022-08-12T11:15:33.587Z,29.84
2022-08-12T11:18:11.799Z,28.41
2022-08-12T11:20:39.932Z,27.14
2022-08-12T11:23:24.659Z,29.53
2022-08-12T11:26:00.454Z,29.55
2022-08-12T11:28:37.691Z,27.99
2022-08-12T11:31:06.443Z,29.33
2022-08-12T11:34:04.320Z,29.72
2022-08-12T11:36:22.468Z,30.85
2022-08-12T11:38:51.378Z,30.43
2022-08-12T11:41:31.053Z,30.51
2022-08-12T11:44:30.656Z,28.97
2022-08-12T11:46:51.184Z,30.49
2022-08-12T11:49:30.661Z,30.16
2022-08-12T11:51:59.586Z,30.37
2022-08-12T11:54:29.893Z,30.25
2022-08-12T11:56:59.963Z,30.30
2022-08-12T12:02:00.732Z,29.97
2022-08-12T12:02:20.706Z,30.01
2022-08-12T12:04:53.066Z,30.91
2022-08-12T12:07:33.972Z,30.75
2022-08-12T12:10:10.371Z,31.27
2022-08-12T12:12:38.702Z,30.71
2022-08-12T12:15:12.413Z,30.82
2022-08-12T12:17:41.580Z,31.13
2022-08-12T12:20:10.519Z,31.29
2022-08-12T12:22:40.011Z,31.17
2022-08-12T12:25:13.204Z,30.65
2022-08-12T12:28:04.023Z,31.18
2022-08-12T12:30:36.514Z,31.20
2022-08-12T12:33:05.308Z,31.26
2022-08-12T12:36:16.411Z,31.57
2022-08-12T12:38:21.135Z,31.15
2022-08-12T12:40:53.307Z,30.18
2022-08-12T12:43:28.915Z,30.79
2022-08-12T12:46:11.163Z,31.06
2022-08-12T12:48:42.492Z,30.81
2022-08-12T12:51:48.299Z,29.58
2022-08-12T12:54:09.434Z,30.81
2022-08-12T12:56:43.024Z,31.08
2022-08-12T12:59:35.000Z,30.71
2022-08-12T13:02:07.962Z,31.69
2022-08-12T13:04:37.283Z,31.43
2022-08-12T13:07:05.931Z,32.04
2022-08-12T13:09:35.833Z,32.27
2022-08-12T13:12:04.252Z,32.48
2022-08-12T13:14:33.229Z,30.54
2022-08-12T13:17:06.194Z,32.22
2022-08-12T13:19:45.151Z,32.17
2022-08-12T13:22:18.587Z,32.46
2022-08-12T13:24:46.514Z,32.60
2022-08-12T13:27:22.673Z,31.99
2022-08-12T13:29:56.231Z,32.48
2022-08-12T13:32:31.535Z,32.13
2022-08-12T13:35:04.603Z,32.80
2022-08-12T13:37:54.504Z,33.24
2022-08-12T13:40:22.641Z,33.78
2022-08-12T13:42:55.843Z,33.30
2022-08-12T13:45:23.493Z,34.00
2022-08-12T13:47:55.317Z,33.88
2022-08-12T13:50:26.838Z,34.00
2022-08-12T13:52:54.491Z,33.63
2022-08-12T13:55:30.969Z,33.77
2022-08-12T13:58:00.051Z,34.16
2022-08-12T14:00:34.292Z,34.45
2022-08-12T14:03:07.501Z,34.44
2022-08-12T14:05:39.250Z,35.03
2022-08-12T14:08:07.893Z,35.18
2022-08-12T14:10:37.616Z,35.84
2022-08-12T14:13:10.455Z,36.03
2022-08-12T14:15:47.804Z,35.78
2022-08-12T14:18:17.553Z,36.06
2022-08-12T14:20:47.563Z,36.47
2022-08-12T14:24:00.950Z,36.57
2022-08-12T14:26:05.253Z,37.07
2022-08-12T14:28:34.877Z,36.94
2022-08-12T14:31:04.773Z,37.10
2022-08-12T14:33:44.009Z,36.71
2022-08-12T14:36:12.966Z,37.22
2022-08-12T14:38:41.403Z,37.37
2022-08-12T14:41:11.068Z,37.38
2022-08-12T14:43:58.822Z,37.71
2022-08-12T14:46:27.935Z,37.63
2022-08-12T14:48:56.939Z,37.86
2022-08-12T14:52:55.868Z,38.06
2022-08-12T14:57:19.464Z,39.32
2022-08-12T15:00:07.777Z,39.91
2022-08-12T15:02:38.125Z,39.71
2022-08-12T15:05:08.257Z,39.69
2022-08-12T15:07:50.102Z,40.18
2022-08-12T15:10:31.114Z,40.48
2022-08-12T15:13:00.328Z,40.61
2022-08-12T15:15:30.501Z,41.36
2022-08-12T15:18:02.424Z,41.42
2022-08-12T15:20:38.140Z,41.67
2022-08-12T15:23:05.982Z,41.98
2022-08-12T15:25:47.750Z,41.55
2022-08-12T15:28:20.701Z,41.60
2022-08-12T15:30:49.627Z,41.49
2022-08-12T15:33:20.943Z,41.95
2022-08-12T15:35:54.007Z,42.35
2022-08-12T15:38:24.913Z,42.26
2022-08-12T15:40:54.069Z,42.72
2022-08-12T15:43:51.960Z,42.74
2022-08-12T15:46:15.261Z,42.37
2022-08-12T15:48:46.661Z,43.01
2022-08-12T15:51:27.891Z,43.73
2022-08-12T15:54:34.114Z,43.70
2022-08-12T15:57:05.515Z,43.57
2022-08-12T16:00:03.713Z,44.32
2022-08-12T16:02:21.439Z,44.47
2022-08-12T16:04:50.406Z,44.49
2022-08-12T16:07:30.069Z,45.07
2022-08-12T16:10:07.109Z,45.43
2022-08-12T16:12:41.427Z,45.21
2022-08-12T16:15:09.930Z,44.09
2022-08-12T16:18:18.828Z,43.97
2022-08-12T16:20:33.173Z,43.48
2022-08-12T16:23:26.368Z,44.05
2022-08-12T16:26:06.350Z,43.89
2022-08-12T16:28:40.114Z,43.58
2022-08-12T16:31:09.913Z,43.67
2022-08-12T16:33:59.262Z,43.46
2022-08-12T16:36:28.554Z,43.37
2022-08-12T16:38:57.789Z,43.74
2022-08-12T16:41:38.262Z,43.33
2022-08-12T16:44:08.350Z,43.86
2022-08-12T16:46:36.161Z,44.36
2022-08-12T16:49:12.967Z,44.57
2022-08-12T16:51:46.827Z,45.40
2022-08-12T16:54:17.016Z,45.54
2022-08-12T16:56:55.306Z,45.28
2022-08-12T16:59:26.293Z,44.87
2022-08-12T17:02:00.429Z,45.59
2022-08-12T17:04:29.035Z,45.63
2022-08-12T17:06:56.562Z,45.92
2022-08-12T17:09:27.053Z,45.82
2022-08-12T17:12:08.074Z,46.05
2022-08-12T17:14:37.762Z,46.25
2022-08-12T17:17:09.982Z,46.56
2022-08-12T17:20:35.292Z,47.50
2022-08-12T17:22:53.126Z,47.07
2022-08-12T17:25:23.108Z,47.28
2022-08-12T17:27:57.341Z,47.48
2022-08-12T17:30:27.557Z,48.45
2022-08-12T17:32:56.500Z,48.42
2022-08-12T17:35:37.377Z,48.88
2022-08-12T17:38:13.606Z,50.30
2022-08-12T17:40:44.198Z,51.40
2022-08-12T17:43:56.464Z,52.94
2022-08-12T17:46:04.137Z,54.87
2022-08-12T17:48:38.425Z,55.88
2022-08-12T17:51:15.728Z,56.48
2022-08-12T17:54:11.344Z,57.78
2022-08-12T17:56:36.797Z,58.82
2022-08-12T17:59:04.505Z,58.77
2022-08-12T18:01:35.804Z,59.07
2022-08-12T18:04:20.951Z,59.49
2022-08-12T18:06:50.903Z,60.53
2022-08-12T18:09:19.386Z,60.46
2022-08-12T18:12:08.147Z,60.59
2022-08-12T18:14:36.959Z,61.25
2022-08-12T18:17:08.736Z,61.94
2022-08-12T18:20:06.468Z,63.01
2022-08-12T18:22:30.961Z,64.41
2022-08-12T18:25:02.265Z,64.82
2022-08-12T18:27:44.264Z,65.57
2022-08-12T18:30:16.388Z,66.78
2022-08-12T18:32:58.242Z,67.38
2022-08-12T18:35:38.689Z,68.30
2022-08-12T18:38:16.596Z,69.49
2022-08-12T18:41:03.832Z,69.39
2022-08-12T18:43:37.015Z,70.88
2022-08-12T18:46:22.821Z,71.68
2022-08-12T18:48:56.887Z,72.38
2022-08-12T18:51:51.815Z,72.88
2022-08-12T18:54:23.451Z,73.26
2022-08-12T18:56:53.320Z,73.71
2022-08-12T19:00:02.333Z,74.23
2022-08-12T19:02:19.063Z,75.21
2022-08-12T19:04:53.024Z,76.84
2022-08-12T19:07:21.869Z,77.30
2022-08-12T19:09:58.614Z,77.72
2022-08-12T19:12:56.971Z,79.23
2022-08-12T19:15:27.379Z,79.81
2022-08-12T19:18:02.435Z,80.72
2022-08-12T19:20:31.634Z,82.72
2022-08-12T19:23:02.463Z,83.59
2022-08-12T19:25:59.268Z,85.30
2022-08-12T19:28:29.549Z,86.84
2022-08-12T19:31:17.465Z,87.32
2022-08-12T19:34:06.461Z,87.51
2022-08-12T19:36:34.565Z,88.01
2022-08-12T19:39:02.973Z,87.87
2022-08-12T19:42:00.497Z,88.19
2022-08-12T19:44:29.907Z,88.26
2022-08-12T19:47:03.401Z,88.97
2022-08-12T19:49:30.949Z,89.53
2022-08-12T19:51:59.348Z,90.54
2022-08-12T19:54:27.290Z,91.00
2022-08-12T19:56:59.289Z,91.84
2022-08-12T19:59:43.378Z,92.02
2022-08-12T20:02:32.935Z,92.10
2022-08-12T20:06:03.349Z,92.28
2022-08-12T20:07:59.072Z,92.15
2022-08-12T20:10:35.346Z,92.49
2022-08-12T20:13:19.023Z,92.58
2022-08-12T20:15:59.994Z,92.24
2022-08-12T20:18:53.243Z,92.13
2022-08-12T20:21:24.384Z,92.00
2022-08-12T20:24:00.624Z,92.13
2022-08-12T20:26:29.132Z,92.29
2022-08-12T20:28:59.469Z,92.31
2022-08-12T20:31:31.713Z,92.75
2022-08-12T20:34:01.216Z,94.01
2022-08-12T20:36:42.936Z,94.13
2022-08-12T20:39:34.026Z,94.53
2022-08-12T20:42:02.295Z,95.21
2022-08-12T20:44:30.795Z,95.43
2022-08-12T20:47:06.274Z,95.88
2022-08-12T20:49:55.338Z,96.65
2022-08-12T20:52:30.122Z,97.31
2022-08-12T20:54:58.250Z,97.96
2022-08-12T20:57:37.371Z,98.75
2022-08-12T21:00:08.985Z,99.28
2022-08-12T21:02:39.332Z,100.00
2022-08-12T21:06:09.762Z,100.00
2022-08-12T21:08:19.056Z,100.00
2022-08-12T21:10:51.271Z,100.00
2022-08-12T21:13:20.913Z,100.00
2022-08-12T21:15:55.132Z,100.00
2022-08-12T21:18:29.143Z,100.00
2022-08-12T21:21:00.519Z,100.00
2022-08-12T21:23:30.882Z,100.00
2022-08-12T21:26:11.287Z,99.58
2022-08-12T21:28:44.222Z,99.22
2022-08-12T21:32:36.697Z,98.83
2022-08-12T21:34:17.786Z,98.62
2022-08-12T21:36:49.402Z,98.71
2022-08-12T21:39:20.401Z,99.03
2022-08-12T21:41:50.142Z,99.30
2022-08-12T21:44:32.502Z,99.51
2022-08-12T21:47:20.150Z,100.00
2022-08-12T21:50:02.436Z,100.00
2022-08-12T21:52:34.568Z,100.00
2022-08-12T21:55:03.361Z,100.00
2022-08-12T21:57:36.379Z,100.00
2022-08-12T22:00:17.451Z,100.00
2022-08-12T22:03:02.745Z,100.00
2022-08-12T22:05:47.893Z,100.00
2022-08-12T22:08:22.041Z,100.00
2022-08-12T22:10:56.419Z,100.00
2022-08-12T22:14:04.182Z,100.00
2022-08-12T22:16:12.498Z,100.00
2022-08-12T22:18:40.473Z,100.00
2022-08-12T22:21:09.034Z,100.00
2022-08-12T22:23:51.748Z,100.00
2022-08-12T22:26:29.419Z,100.00
2022-08-12T22:29:23.052Z,100.00
2022-08-12T22:31:53.764Z,100.00
2022-08-12T22:34:21.461Z,100.00
2022-08-12T22:36:57.227Z,100.00
2022-08-12T22:39:26.586Z,100.00
2022-08-12T22:42:11.733Z,100.00
2022-08-12T22:44:56.677Z,100.00
2022-08-12T22:47:54.691Z,100.00
2022-08-12T22:50:27.778Z,100.00
2022-08-12T22:53:14.243Z,100.00
2022-08-12T22:55:59.619Z,100.00
2022-08-12T22:58:33.390Z,100.00
2022-08-12T23:01:02.259Z,100.00
2022-08-12T23:03:49.261Z,100.00
2022-08-12T23:06:18.403Z,100.00
2022-08-12T23:08:47.045Z,99.79
2022-08-12T23:11:17.944Z,99.73
2022-08-12T23:13:55.359Z,99.64
2022-08-12T23:16:29.244Z,99.58
2022-08-12T23:19:01.413Z,99.66
2022-08-12T23:22:04.486Z,99.71
2022-08-12T23:24:26.304Z,99.70
2022-08-12T23:27:13.009Z,99.57
2022-08-12T23:29:43.349Z,99.45
2022-08-12T23:32:36.605Z,99.62
2022-08-12T23:35:03.782Z,99.30
2022-08-12T23:37:47.207Z,99.10
2022-08-12T23:40:22.174Z,99.46
2022-08-12T23:42:54.852Z,99.52
2022-08-12T23:45:31.072Z,99.31
2022-08-12T23:48:00.217Z,99.45
2022-08-12T23:50:34.303Z,99.23
2022-08-12T23:53:05.325Z,99.55
2022-08-12T23:55:34.032Z,99.74
2022-08-12T23:58:22.993Z,100.00
